sensor_id;sensor_type;location;lat;lon;timestamp;P1;durP1;ratioP1;P2;durP2;ratioP2
65238;SDS011;51827;51.186;6.926;2023-08-12T00:00:16;7.17;;;3.10;;
65238;SDS011;51827;51.186;6.926;2023-08-12T00:01:17;7.93;;;3.30;;
65238;SDS011;51827;51.186;6.926;2023-08-12T00:02:17;8.30;;;3.63;;
65238;SDS011;51827;51.186;6.926;2023-08-12T00:03:17;6.00;;;3.40;;
65238;SDS011;51827;51.186;6.926;2023-08-12T00:04:18;7.97;;;3.47;;
65238;SDS011;51827;51.186;6.926;2023-08-12T00:05:18;5.47;;;3.30;;
65238;SDS011;51827;51.186;6.926;2023-08-12T00:06:18;7.43;;;3.80;;
65238;SDS011;51827;51.186;6.926;2023-08-12T00:07:18;7.43;;;3.33;;
65238;SDS011;51827;51.186;6.926;2023-08-12T00:08:19;6.17;;;3.10;;
65238;SDS011;51827;51.186;6.926;2023-08-12T00:09:19;5.93;;;3.03;;
65238;SDS011;51827;51.186;6.926;2023-08-12T00:10:20;5.87;;;3.20;;
65238;SDS011;51827;51.186;6.926;2023-08-12T00:11:20;6.00;;;3.40;;
65238;SDS011;51827;51.186;6.926;2023-08-12T00:12:20;7.13;;;3.30;;
65238;SDS011;51827;51.186;6.926;2023-08-12T00:13:20;5.33;;;3.47;;
65238;SDS011;51827;51.186;6.926;2023-08-12T00:14:20;7.00;;;3.10;;
65238;SDS011;51827;51.186;6.926;2023-08-12T00:15:21;5.73;;;3.10;;
65238;SDS011;51827;51.186;6.926;2023-08-12T00:16:21;6.93;;;3.33;;
65238;SDS011;51827;51.186;6.926;2023-08-12T00:17:21;7.00;;;3.73;;
65238;SDS011;51827;51.186;6.926;2023-08-12T00:18:22;6.57;;;3.50;;
65238;SDS011;51827;51.186;6.926;2023-08-12T00:19:23;9.13;;;3.70;;
65238;SDS011;51827;51.186;6.926;2023-08-12T00:20:23;6.37;;;3.23;;
65238;SDS011;51827;51.186;6.926;2023-08-12T00:21:23;6.53;;;3.43;;
65238;SDS011;51827;51.186;6.926;2023-08-12T00:22:25;7.35;;;3.38;;
65238;SDS011;51827;51.186;6.926;2023-08-12T00:23:25;12.30;;;3.60;;
65238;SDS011;51827;51.186;6.926;2023-08-12T00:24:25;5.60;;;3.17;;
65238;SDS011;51827;51.186;6.926;2023-08-12T00:25:25;7.93;;;3.40;;
65238;SDS011;51827;51.186;6.926;2023-08-12T00:26:26;7.03;;;3.40;;
65238;SDS011;51827;51.186;6.926;2023-08-12T00:27:26;5.97;;;3.20;;
65238;SDS011;51827;51.186;6.926;2023-08-12T00:28:26;8.93;;;3.50;;
65238;SDS011;51827;51.186;6.926;2023-08-12T00:29:26;6.77;;;3.27;;
65238;SDS011;51827;51.186;6.926;2023-08-12T00:30:27;6.90;;;3.30;;
65238;SDS011;51827;51.186;6.926;2023-08-12T00:31:27;6.73;;;3.30;;
65238;SDS011;51827;51.186;6.926;2023-08-12T00:32:27;5.33;;;3.30;;
65238;SDS011;51827;51.186;6.926;2023-08-12T00:33:27;6.33;;;3.50;;
65238;SDS011;51827;51.186;6.926;2023-08-12T00:34:28;5.88;;;3.10;;
65238;SDS011;51827;51.186;6.926;2023-08-12T00:35:28;4.90;;;3.20;;
65238;SDS011;51827;51.186;6.926;2023-08-12T00:36:28;7.33;;;3.30;;
65238;SDS011;51827;51.186;6.926;2023-08-12T00:37:29;5.67;;;3.40;;
65238;SDS011;51827;51.186;6.926;2023-08-12T00:38:29;7.17;;;3.40;;
65238;SDS011;51827;51.186;6.926;2023-08-12T00:39:29;5.97;;;3.10;;
65238;SDS011;51827;51.186;6.926;2023-08-12T00:40:29;7.20;;;3.50;;
65238;SDS011;51827;51.186;6.926;2023-08-12T00:41:30;6.80;;;3.50;;
65238;SDS011;51827;51.186;6.926;2023-08-12T00:42:30;7.07;;;3.40;;
65238;SDS011;51827;51.186;6.926;2023-08-12T00:43:30;7.90;;;3.77;;
65238;SDS011;51827;51.186;6.926;2023-08-12T00:44:30;7.33;;;3.57;;
65238;SDS011;51827;51.186;6.926;2023-08-12T00:45:31;5.80;;;3.33;;
65238;SDS011;51827;51.186;6.926;2023-08-12T00:46:31;5.22;;;2.97;;
65238;SDS011;51827;51.186;6.926;2023-08-12T00:47:33;6.78;;;3.28;;
65238;SDS011;51827;51.186;6.926;2023-08-12T00:48:33;6.00;;;2.90;;
65238;SDS011;51827;51.186;6.926;2023-08-12T00:49:33;6.50;;;3.30;;
65238;SDS011;51827;51.186;6.926;2023-08-12T00:50:34;7.13;;;3.53;;
65238;SDS011;51827;51.186;6.926;2023-08-12T00:51:37;8.30;;;3.38;;
65238;SDS011;51827;51.186;6.926;2023-08-12T00:52:39;7.47;;;3.63;;
65238;SDS011;51827;51.186;6.926;2023-08-12T00:53:40;7.68;;;3.88;;
65238;SDS011;51827;51.186;6.926;2023-08-12T00:54:40;6.75;;;3.70;;
65238;SDS011;51827;51.186;6.926;2023-08-12T00:55:41;6.50;;;3.50;;
65238;SDS011;51827;51.186;6.926;2023-08-12T00:56:41;6.03;;;3.47;;
65238;SDS011;51827;51.186;6.926;2023-08-12T00:57:42;6.57;;;3.38;;
65238;SDS011;51827;51.186;6.926;2023-08-12T00:58:43;8.63;;;3.63;;
65238;SDS011;51827;51.186;6.926;2023-08-12T01:00:45;9.30;;;3.43;;
65238;SDS011;51827;51.186;6.926;2023-08-12T01:01:45;8.13;;;3.50;;
65238;SDS011;51827;51.186;6.926;2023-08-12T01:02:46;8.00;;;3.45;;
65238;SDS011;51827;51.186;6.926;2023-08-12T01:03:48;9.30;;;3.60;;
65238;SDS011;51827;51.186;6.926;2023-08-12T01:04:49;4.65;;;3.20;;
65238;SDS011;51827;51.186;6.926;2023-08-12T01:05:49;8.50;;;3.63;;
65238;SDS011;51827;51.186;6.926;2023-08-12T01:06:49;7.82;;;3.28;;
65238;SDS011;51827;51.186;6.926;2023-08-12T01:07:50;9.13;;;3.70;;
65238;SDS011;51827;51.186;6.926;2023-08-12T01:08:50;6.60;;;3.23;;
65238;SDS011;51827;51.186;6.926;2023-08-12T01:09:50;6.15;;;3.47;;
65238;SDS011;51827;51.186;6.926;2023-08-12T01:10:52;5.85;;;3.25;;
65238;SDS011;51827;51.186;6.926;2023-08-12T01:13:38;7.22;;;3.13;;
65238;SDS011;51827;51.186;6.926;2023-08-12T01:14:59;5.30;;;3.40;;
65238;SDS011;51827;51.186;6.926;2023-08-12T01:16:06;5.85;;;3.55;;
65238;SDS011;51827;51.186;6.926;2023-08-12T01:17:09;4.57;;;3.40;;
65238;SDS011;51827;51.186;6.926;2023-08-12T01:18:12;6.75;;;3.33;;
65238;SDS011;51827;51.186;6.926;2023-08-12T01:19:29;5.82;;;3.00;;
65238;SDS011;51827;51.186;6.926;2023-08-12T01:20:33;5.72;;;3.38;;
65238;SDS011;51827;51.186;6.926;2023-08-12T01:21:33;5.88;;;3.58;;
65238;SDS011;51827;51.186;6.926;2023-08-12T01:22:37;5.65;;;3.67;;
65238;SDS011;51827;51.186;6.926;2023-08-12T01:23:38;5.97;;;3.05;;
65238;SDS011;51827;51.186;6.926;2023-08-12T01:24:39;5.07;;;3.47;;
65238;SDS011;51827;51.186;6.926;2023-08-12T01:25:43;6.35;;;3.30;;
65238;SDS011;51827;51.186;6.926;2023-08-12T01:26:43;7.00;;;3.55;;
65238;SDS011;51827;51.186;6.926;2023-08-12T01:27:43;5.53;;;3.50;;
65238;SDS011;51827;51.186;6.926;2023-08-12T01:28:43;5.60;;;3.20;;
65238;SDS011;51827;51.186;6.926;2023-08-12T01:29:44;6.00;;;3.17;;
65238;SDS011;51827;51.186;6.926;2023-08-12T01:33:34;7.45;;;3.63;;
65238;SDS011;51827;51.186;6.926;2023-08-12T01:34:51;5.93;;;3.17;;
65238;SDS011;51827;51.186;6.926;2023-08-12T01:36:00;4.78;;;3.08;;
65238;SDS011;51827;51.186;6.926;2023-08-12T01:37:10;5.57;;;3.00;;
65238;SDS011;51827;51.186;6.926;2023-08-12T01:38:13;5.90;;;3.50;;
65238;SDS011;51827;51.186;6.926;2023-08-12T01:39:14;5.03;;;3.20;;
65238;SDS011;51827;51.186;6.926;2023-08-12T01:40:15;5.35;;;3.30;;
65238;SDS011;51827;51.186;6.926;2023-08-12T01:41:18;6.40;;;3.22;;
65238;SDS011;51827;51.186;6.926;2023-08-12T01:42:23;5.18;;;3.47;;
65238;SDS011;51827;51.186;6.926;2023-08-12T01:43:24;6.85;;;3.50;;
65238;SDS011;51827;51.186;6.926;2023-08-12T01:44:25;7.28;;;3.53;;
65238;SDS011;51827;51.186;6.926;2023-08-12T01:45:26;5.72;;;2.97;;
65238;SDS011;51827;51.186;6.926;2023-08-12T01:46:26;5.57;;;2.93;;
65238;SDS011;51827;51.186;6.926;2023-08-12T01:47:27;5.93;;;3.07;;
65238;SDS011;51827;51.186;6.926;2023-08-12T01:48:28;5.75;;;3.30;;
65238;SDS011;51827;51.186;6.926;2023-08-12T01:49:28;5.15;;;2.95;;
65238;SDS011;51827;51.186;6.926;2023-08-12T01:50:28;5.07;;;3.10;;
65238;SDS011;51827;51.186;6.926;2023-08-12T01:51:29;5.17;;;3.00;;
65238;SDS011;51827;51.186;6.926;2023-08-12T01:52:29;5.93;;;3.33;;
65238;SDS011;51827;51.186;6.926;2023-08-12T01:53:29;4.37;;;3.00;;
65238;SDS011;51827;51.186;6.926;2023-08-12T01:54:30;6.45;;;3.40;;
65238;SDS011;51827;51.186;6.926;2023-08-12T01:55:30;5.37;;;3.20;;
65238;SDS011;51827;51.186;6.926;2023-08-12T01:56:30;5.57;;;2.97;;
65238;SDS011;51827;51.186;6.926;2023-08-12T01:57:31;5.53;;;3.20;;
65238;SDS011;51827;51.186;6.926;2023-08-12T01:58:31;6.30;;;3.20;;
65238;SDS011;51827;51.186;6.926;2023-08-12T01:59:31;7.30;;;2.97;;
65238;SDS011;51827;51.186;6.926;2023-08-12T02:00:32;7.00;;;2.97;;
65238;SDS011;51827;51.186;6.926;2023-08-12T02:01:32;4.93;;;3.03;;
65238;SDS011;51827;51.186;6.926;2023-08-12T02:02:33;6.40;;;3.20;;
65238;SDS011;51827;51.186;6.926;2023-08-12T02:03:33;6.33;;;3.50;;
65238;SDS011;51827;51.186;6.926;2023-08-12T02:04:33;5.43;;;3.30;;
65238;SDS011;51827;51.186;6.926;2023-08-12T02:05:34;5.63;;;3.08;;
65238;SDS011;51827;51.186;6.926;2023-08-12T02:06:34;7.60;;;2.80;;
65238;SDS011;51827;51.186;6.926;2023-08-12T02:07:34;7.77;;;3.23;;
65238;SDS011;51827;51.186;6.926;2023-08-12T02:08:35;8.70;;;3.17;;
65238;SDS011;51827;51.186;6.926;2023-08-12T02:09:35;5.20;;;3.00;;
65238;SDS011;51827;51.186;6.926;2023-08-12T02:10:35;4.60;;;2.87;;
65238;SDS011;51827;51.186;6.926;2023-08-12T02:11:35;5.37;;;3.07;;
65238;SDS011;51827;51.186;6.926;2023-08-12T02:12:36;5.03;;;3.00;;
65238;SDS011;51827;51.186;6.926;2023-08-12T02:13:36;6.67;;;3.30;;
65238;SDS011;51827;51.186;6.926;2023-08-12T02:14:36;5.53;;;3.27;;
65238;SDS011;51827;51.186;6.926;2023-08-12T02:15:36;5.13;;;3.07;;
65238;SDS011;51827;51.186;6.926;2023-08-12T02:16:37;6.53;;;3.17;;
65238;SDS011;51827;51.186;6.926;2023-08-12T02:17:37;6.07;;;2.53;;
65238;SDS011;51827;51.186;6.926;2023-08-12T02:18:37;4.13;;;2.80;;
65238;SDS011;51827;51.186;6.926;2023-08-12T02:19:37;5.17;;;2.93;;
65238;SDS011;51827;51.186;6.926;2023-08-12T02:20:38;5.53;;;3.00;;
65238;SDS011;51827;51.186;6.926;2023-08-12T02:21:41;5.65;;;2.65;;
65238;SDS011;51827;51.186;6.926;2023-08-12T02:22:41;6.07;;;3.10;;
65238;SDS011;51827;51.186;6.926;2023-08-12T02:23:42;5.43;;;2.60;;
65238;SDS011;51827;51.186;6.926;2023-08-12T02:24:42;4.67;;;3.10;;
65238;SDS011;51827;51.186;6.926;2023-08-12T02:25:42;5.53;;;3.20;;
65238;SDS011;51827;51.186;6.926;2023-08-12T02:26:42;6.17;;;2.83;;
65238;SDS011;51827;51.186;6.926;2023-08-12T02:27:43;4.17;;;2.70;;
65238;SDS011;51827;51.186;6.926;2023-08-12T02:28:43;5.53;;;3.10;;
65238;SDS011;51827;51.186;6.926;2023-08-12T02:29:43;4.57;;;2.70;;
65238;SDS011;51827;51.186;6.926;2023-08-12T02:30:43;5.03;;;3.10;;
65238;SDS011;51827;51.186;6.926;2023-08-12T02:31:44;5.00;;;2.83;;
65238;SDS011;51827;51.186;6.926;2023-08-12T02:32:44;4.47;;;2.50;;
65238;SDS011;51827;51.186;6.926;2023-08-12T02:33:44;5.60;;;3.00;;
65238;SDS011;51827;51.186;6.926;2023-08-12T02:34:44;5.03;;;2.90;;
65238;SDS011;51827;51.186;6.926;2023-08-12T02:35:45;4.40;;;2.90;;
65238;SDS011;51827;51.186;6.926;2023-08-12T02:36:45;4.53;;;2.70;;
65238;SDS011;51827;51.186;6.926;2023-08-12T02:37:45;4.97;;;2.80;;
65238;SDS011;51827;51.186;6.926;2023-08-12T02:38:48;5.63;;;2.83;;
65238;SDS011;51827;51.186;6.926;2023-08-12T02:39:48;3.80;;;2.80;;
65238;SDS011;51827;51.186;6.926;2023-08-12T02:40:49;6.17;;;3.00;;
65238;SDS011;51827;51.186;6.926;2023-08-12T02:41:49;6.75;;;2.70;;
65238;SDS011;51827;51.186;6.926;2023-08-12T02:42:49;4.93;;;2.90;;
65238;SDS011;51827;51.186;6.926;2023-08-12T02:43:50;4.73;;;2.80;;
65238;SDS011;51827;51.186;6.926;2023-08-12T02:44:50;4.90;;;2.83;;
65238;SDS011;51827;51.186;6.926;2023-08-12T02:45:50;4.32;;;2.72;;
65238;SDS011;51827;51.186;6.926;2023-08-12T02:46:51;7.13;;;2.97;;
65238;SDS011;51827;51.186;6.926;2023-08-12T02:47:51;5.00;;;3.10;;
65238;SDS011;51827;51.186;6.926;2023-08-12T02:48:52;4.30;;;2.33;;
65238;SDS011;51827;51.186;6.926;2023-08-12T02:49:53;4.10;;;2.50;;
65238;SDS011;51827;51.186;6.926;2023-08-12T02:50:53;4.20;;;2.80;;
65238;SDS011;51827;51.186;6.926;2023-08-12T02:51:53;5.27;;;2.93;;
65238;SDS011;51827;51.186;6.926;2023-08-12T02:52:53;4.73;;;2.70;;
65238;SDS011;51827;51.186;6.926;2023-08-12T02:53:54;4.20;;;2.60;;
65238;SDS011;51827;51.186;6.926;2023-08-12T02:54:54;5.13;;;2.77;;
65238;SDS011;51827;51.186;6.926;2023-08-12T02:55:54;6.47;;;2.90;;
65238;SDS011;51827;51.186;6.926;2023-08-12T02:56:54;5.07;;;2.77;;
65238;SDS011;51827;51.186;6.926;2023-08-12T02:57:55;3.83;;;2.70;;
65238;SDS011;51827;51.186;6.926;2023-08-12T02:58:55;4.23;;;2.60;;
65238;SDS011;51827;51.186;6.926;2023-08-12T02:59:55;4.10;;;2.70;;
65238;SDS011;51827;51.186;6.926;2023-08-12T03:00:55;5.60;;;2.83;;
65238;SDS011;51827;51.186;6.926;2023-08-12T03:01:56;5.78;;;2.90;;
65238;SDS011;51827;51.186;6.926;2023-08-12T03:02:56;4.33;;;2.60;;
65238;SDS011;51827;51.186;6.926;2023-08-12T03:03:56;5.20;;;2.80;;
65238;SDS011;51827;51.186;6.926;2023-08-12T03:04:57;4.13;;;2.67;;
65238;SDS011;51827;51.186;6.926;2023-08-12T03:05:57;5.97;;;2.87;;
65238;SDS011;51827;51.186;6.926;2023-08-12T03:06:57;4.17;;;2.63;;
65238;SDS011;51827;51.186;6.926;2023-08-12T03:07:57;4.63;;;2.73;;
65238;SDS011;51827;51.186;6.926;2023-08-12T03:08:58;4.37;;;2.67;;
65238;SDS011;51827;51.186;6.926;2023-08-12T03:09:58;5.80;;;3.10;;
65238;SDS011;51827;51.186;6.926;2023-08-12T03:10:59;4.40;;;2.70;;
65238;SDS011;51827;51.186;6.926;2023-08-12T03:12:00;4.68;;;2.80;;
65238;SDS011;51827;51.186;6.926;2023-08-12T03:13:00;4.97;;;2.50;;
65238;SDS011;51827;51.186;6.926;2023-08-12T03:14:00;3.97;;;2.80;;
65238;SDS011;51827;51.186;6.926;2023-08-12T03:15:01;4.30;;;2.77;;
65238;SDS011;51827;51.186;6.926;2023-08-12T03:16:02;6.10;;;3.00;;
65238;SDS011;51827;51.186;6.926;2023-08-12T03:17:02;4.00;;;2.70;;
65238;SDS011;51827;51.186;6.926;2023-08-12T03:18:03;4.97;;;2.63;;
65238;SDS011;51827;51.186;6.926;2023-08-12T03:19:03;6.30;;;2.83;;
65238;SDS011;51827;51.186;6.926;2023-08-12T03:20:04;5.38;;;2.65;;
65238;SDS011;51827;51.186;6.926;2023-08-12T03:21:07;3.83;;;2.53;;
65238;SDS011;51827;51.186;6.926;2023-08-12T03:22:08;5.88;;;2.80;;
65238;SDS011;51827;51.186;6.926;2023-08-12T03:23:08;4.13;;;2.60;;
65238;SDS011;51827;51.186;6.926;2023-08-12T03:24:08;6.57;;;3.00;;
65238;SDS011;51827;51.186;6.926;2023-08-12T03:25:08;4.77;;;2.90;;
65238;SDS011;51827;51.186;6.926;2023-08-12T03:26:09;5.60;;;2.83;;
65238;SDS011;51827;51.186;6.926;2023-08-12T03:27:09;4.90;;;2.83;;
65238;SDS011;51827;51.186;6.926;2023-08-12T03:28:09;4.63;;;2.73;;
65238;SDS011;51827;51.186;6.926;2023-08-12T03:29:09;6.63;;;3.03;;
65238;SDS011;51827;51.186;6.926;2023-08-12T03:30:10;5.47;;;3.20;;
65238;SDS011;51827;51.186;6.926;2023-08-12T03:31:10;4.65;;;2.88;;
65238;SDS011;51827;51.186;6.926;2023-08-12T03:32:11;4.70;;;2.77;;
65238;SDS011;51827;51.186;6.926;2023-08-12T03:33:11;6.23;;;3.80;;
65238;SDS011;51827;51.186;6.926;2023-08-12T03:34:11;7.63;;;3.00;;
65238;SDS011;51827;51.186;6.926;2023-08-12T03:35:11;7.20;;;3.73;;
65238;SDS011;51827;51.186;6.926;2023-08-12T03:36:11;5.57;;;3.30;;
65238;SDS011;51827;51.186;6.926;2023-08-12T03:37:12;4.90;;;3.20;;
65238;SDS011;51827;51.186;6.926;2023-08-12T03:38:12;5.33;;;3.47;;
65238;SDS011;51827;51.186;6.926;2023-08-12T03:39:13;5.68;;;3.10;;
65238;SDS011;51827;51.186;6.926;2023-08-12T03:40:13;7.28;;;3.20;;
65238;SDS011;51827;51.186;6.926;2023-08-12T03:41:14;5.33;;;3.10;;
65238;SDS011;51827;51.186;6.926;2023-08-12T03:42:14;5.60;;;3.00;;
65238;SDS011;51827;51.186;6.926;2023-08-12T03:43:14;6.43;;;3.13;;
65238;SDS011;51827;51.186;6.926;2023-08-12T03:44:14;5.43;;;3.17;;
65238;SDS011;51827;51.186;6.926;2023-08-12T03:45:14;5.47;;;3.10;;
65238;SDS011;51827;51.186;6.926;2023-08-12T03:46:15;5.87;;;3.10;;
65238;SDS011;51827;51.186;6.926;2023-08-12T03:47:16;6.57;;;3.55;;
65238;SDS011;51827;51.186;6.926;2023-08-12T03:48:17;5.68;;;3.40;;
65238;SDS011;51827;51.186;6.926;2023-08-12T03:49:17;5.33;;;2.80;;
65238;SDS011;51827;51.186;6.926;2023-08-12T03:50:17;5.23;;;2.97;;
65238;SDS011;51827;51.186;6.926;2023-08-12T03:51:17;5.10;;;2.90;;
65238;SDS011;51827;51.186;6.926;2023-08-12T03:52:18;4.53;;;2.83;;
65238;SDS011;51827;51.186;6.926;2023-08-12T03:53:18;6.63;;;2.83;;
65238;SDS011;51827;51.186;6.926;2023-08-12T03:54:18;5.40;;;3.00;;
65238;SDS011;51827;51.186;6.926;2023-08-12T03:55:18;5.77;;;2.90;;
65238;SDS011;51827;51.186;6.926;2023-08-12T03:56:19;4.63;;;2.47;;
65238;SDS011;51827;51.186;6.926;2023-08-12T03:57:19;6.20;;;2.87;;
65238;SDS011;51827;51.186;6.926;2023-08-12T03:58:19;5.70;;;2.70;;
65238;SDS011;51827;51.186;6.926;2023-08-12T03:59:19;8.47;;;2.97;;
65238;SDS011;51827;51.186;6.926;2023-08-12T04:00:20;3.87;;;2.50;;
65238;SDS011;51827;51.186;6.926;2023-08-12T04:01:20;7.07;;;2.70;;
65238;SDS011;51827;51.186;6.926;2023-08-12T04:02:20;4.00;;;2.40;;
65238;SDS011;51827;51.186;6.926;2023-08-12T04:03:20;4.90;;;2.87;;
65238;SDS011;51827;51.186;6.926;2023-08-12T04:04:21;3.93;;;2.47;;
65238;SDS011;51827;51.186;6.926;2023-08-12T04:05:21;6.20;;;2.60;;
65238;SDS011;51827;51.186;6.926;2023-08-12T04:06:21;5.20;;;3.00;;
65238;SDS011;51827;51.186;6.926;2023-08-12T04:07:21;4.13;;;2.67;;
65238;SDS011;51827;51.186;6.926;2023-08-12T04:08:22;4.30;;;2.63;;
65238;SDS011;51827;51.186;6.926;2023-08-12T04:09:23;7.00;;;2.70;;
65238;SDS011;51827;51.186;6.926;2023-08-12T04:10:23;6.30;;;2.70;;
65238;SDS011;51827;51.186;6.926;2023-08-12T04:11:23;4.10;;;2.67;;
65238;SDS011;51827;51.186;6.926;2023-08-12T04:12:24;6.97;;;3.10;;
65238;SDS011;51827;51.186;6.926;2023-08-12T04:13:24;4.50;;;2.80;;
65238;SDS011;51827;51.186;6.926;2023-08-12T04:14:24;5.53;;;2.80;;
65238;SDS011;51827;51.186;6.926;2023-08-12T04:15:24;3.80;;;2.60;;
65238;SDS011;51827;51.186;6.926;2023-08-12T04:16:24;5.60;;;2.60;;
65238;SDS011;51827;51.186;6.926;2023-08-12T04:17:25;5.67;;;2.93;;
65238;SDS011;51827;51.186;6.926;2023-08-12T04:18:25;6.97;;;2.80;;
65238;SDS011;51827;51.186;6.926;2023-08-12T04:19:25;6.33;;;2.87;;
65238;SDS011;51827;51.186;6.926;2023-08-12T04:20:25;5.13;;;2.70;;
65238;SDS011;51827;51.186;6.926;2023-08-12T04:21:26;5.17;;;2.70;;
65238;SDS011;51827;51.186;6.926;2023-08-12T04:22:26;5.50;;;2.85;;
65238;SDS011;51827;51.186;6.926;2023-08-12T04:23:26;3.63;;;2.40;;
65238;SDS011;51827;51.186;6.926;2023-08-12T04:24:26;5.23;;;2.67;;
65238;SDS011;51827;51.186;6.926;2023-08-12T04:25:27;5.50;;;2.70;;
65238;SDS011;51827;51.186;6.926;2023-08-12T04:26:27;5.73;;;2.93;;
65238;SDS011;51827;51.186;6.926;2023-08-12T04:27:27;5.07;;;2.70;;
65238;SDS011;51827;51.186;6.926;2023-08-12T04:28:28;4.47;;;2.70;;
65238;SDS011;51827;51.186;6.926;2023-08-12T04:29:28;5.57;;;2.80;;
65238;SDS011;51827;51.186;6.926;2023-08-12T04:30:28;4.77;;;2.80;;
65238;SDS011;51827;51.186;6.926;2023-08-12T04:31:28;6.43;;;2.70;;
65238;SDS011;51827;51.186;6.926;2023-08-12T04:32:29;5.97;;;2.80;;
65238;SDS011;51827;51.186;6.926;2023-08-12T04:33:29;5.80;;;2.97;;
65238;SDS011;51827;51.186;6.926;2023-08-12T04:34:29;4.53;;;2.90;;
65238;SDS011;51827;51.186;6.926;2023-08-12T04:35:31;4.03;;;2.43;;
65238;SDS011;51827;51.186;6.926;2023-08-12T04:36:31;4.15;;;2.50;;
65238;SDS011;51827;51.186;6.926;2023-08-12T04:37:32;4.03;;;2.67;;
65238;SDS011;51827;51.186;6.926;2023-08-12T04:38:32;6.07;;;2.70;;
65238;SDS011;51827;51.186;6.926;2023-08-12T04:39:32;5.85;;;3.05;;
65238;SDS011;51827;51.186;6.926;2023-08-12T04:40:32;6.07;;;2.83;;
65238;SDS011;51827;51.186;6.926;2023-08-12T04:41:33;4.53;;;2.67;;
65238;SDS011;51827;51.186;6.926;2023-08-12T04:42:33;3.90;;;2.53;;
65238;SDS011;51827;51.186;6.926;2023-08-12T04:43:34;4.80;;;2.53;;
65238;SDS011;51827;51.186;6.926;2023-08-12T04:44:34;4.67;;;2.97;;
65238;SDS011;51827;51.186;6.926;2023-08-12T04:45:34;3.47;;;2.20;;
65238;SDS011;51827;51.186;6.926;2023-08-12T04:46:34;6.78;;;2.78;;
65238;SDS011;51827;51.186;6.926;2023-08-12T04:47:35;4.43;;;2.47;;
65238;SDS011;51827;51.186;6.926;2023-08-12T04:48:35;4.37;;;2.70;;
65238;SDS011;51827;51.186;6.926;2023-08-12T04:49:35;5.53;;;2.70;;
65238;SDS011;51827;51.186;6.926;2023-08-12T04:50:35;4.27;;;2.50;;
65238;SDS011;51827;51.186;6.926;2023-08-12T04:51:36;4.60;;;2.57;;
65238;SDS011;51827;51.186;6.926;2023-08-12T04:52:36;4.63;;;2.60;;
65238;SDS011;51827;51.186;6.926;2023-08-12T04:53:36;8.07;;;2.70;;
65238;SDS011;51827;51.186;6.926;2023-08-12T04:54:36;5.53;;;2.77;;
65238;SDS011;51827;51.186;6.926;2023-08-12T04:55:37;5.07;;;2.50;;
65238;SDS011;51827;51.186;6.926;2023-08-12T04:56:37;6.23;;;2.97;;
65238;SDS011;51827;51.186;6.926;2023-08-12T04:57:37;5.07;;;2.53;;
65238;SDS011;51827;51.186;6.926;2023-08-12T04:58:37;5.00;;;2.63;;
65238;SDS011;51827;51.186;6.926;2023-08-12T04:59:38;5.67;;;3.00;;
65238;SDS011;51827;51.186;6.926;2023-08-12T05:00:38;4.10;;;2.53;;
65238;SDS011;51827;51.186;6.926;2023-08-12T05:01:38;4.53;;;2.57;;
65238;SDS011;51827;51.186;6.926;2023-08-12T05:02:38;7.53;;;2.70;;
65238;SDS011;51827;51.186;6.926;2023-08-12T05:03:39;4.03;;;2.60;;
65238;SDS011;51827;51.186;6.926;2023-08-12T05:04:39;3.77;;;2.30;;
65238;SDS011;51827;51.186;6.926;2023-08-12T05:05:39;4.43;;;2.60;;
65238;SDS011;51827;51.186;6.926;2023-08-12T05:06:39;5.47;;;2.60;;
65238;SDS011;51827;51.186;6.926;2023-08-12T05:07:40;9.27;;;2.80;;
65238;SDS011;51827;51.186;6.926;2023-08-12T05:08:40;5.28;;;2.60;;
65238;SDS011;51827;51.186;6.926;2023-08-12T05:09:40;4.20;;;2.40;;
65238;SDS011;51827;51.186;6.926;2023-08-12T05:10:40;6.00;;;2.30;;
65238;SDS011;51827;51.186;6.926;2023-08-12T05:11:41;5.80;;;2.70;;
65238;SDS011;51827;51.186;6.926;2023-08-12T05:12:41;6.10;;;2.83;;
65238;SDS011;51827;51.186;6.926;2023-08-12T05:13:42;5.13;;;2.88;;
65238;SDS011;51827;51.186;6.926;2023-08-12T05:14:42;3.93;;;2.53;;
65238;SDS011;51827;51.186;6.926;2023-08-12T05:15:48;4.93;;;2.30;;
65238;SDS011;51827;51.186;6.926;2023-08-12T05:16:48;6.20;;;2.58;;
65238;SDS011;51827;51.186;6.926;2023-08-12T05:17:48;5.17;;;2.70;;
65238;SDS011;51827;51.186;6.926;2023-08-12T05:18:49;4.00;;;2.20;;
65238;SDS011;51827;51.186;6.926;2023-08-12T05:19:49;8.20;;;2.93;;
65238;SDS011;51827;51.186;6.926;2023-08-12T05:20:50;3.90;;;2.43;;
65238;SDS011;51827;51.186;6.926;2023-08-12T05:21:51;7.93;;;2.65;;
65238;SDS011;51827;51.186;6.926;2023-08-12T05:22:51;4.10;;;2.43;;
65238;SDS011;51827;51.186;6.926;2023-08-12T05:23:51;4.23;;;2.17;;
65238;SDS011;51827;51.186;6.926;2023-08-12T05:24:52;3.30;;;2.50;;
65238;SDS011;51827;51.186;6.926;2023-08-12T05:25:52;4.60;;;2.60;;
65238;SDS011;51827;51.186;6.926;2023-08-12T05:26:52;4.73;;;2.20;;
65238;SDS011;51827;51.186;6.926;2023-08-12T05:27:52;3.83;;;2.20;;
65238;SDS011;51827;51.186;6.926;2023-08-12T05:28:53;5.27;;;2.53;;
65238;SDS011;51827;51.186;6.926;2023-08-12T05:29:53;3.90;;;2.40;;
65238;SDS011;51827;51.186;6.926;2023-08-12T05:30:53;4.53;;;2.63;;
65238;SDS011;51827;51.186;6.926;2023-08-12T05:31:53;4.87;;;2.60;;
65238;SDS011;51827;51.186;6.926;2023-08-12T05:32:54;5.17;;;2.43;;
65238;SDS011;51827;51.186;6.926;2023-08-12T05:33:54;4.57;;;2.67;;
65238;SDS011;51827;51.186;6.926;2023-08-12T05:34:54;3.63;;;2.30;;
65238;SDS011;51827;51.186;6.926;2023-08-12T05:35:55;6.13;;;2.42;;
65238;SDS011;51827;51.186;6.926;2023-08-12T05:36:55;5.83;;;2.57;;
65238;SDS011;51827;51.186;6.926;2023-08-12T05:37:55;6.67;;;2.63;;
65238;SDS011;51827;51.186;6.926;2023-08-12T05:38:58;3.83;;;2.35;;
65238;SDS011;51827;51.186;6.926;2023-08-12T05:39:59;4.68;;;2.35;;
65238;SDS011;51827;51.186;6.926;2023-08-12T05:40:59;4.43;;;2.55;;
65238;SDS011;51827;51.186;6.926;2023-08-12T05:41:59;4.17;;;2.33;;
65238;SDS011;51827;51.186;6.926;2023-08-12T05:43:00;6.97;;;2.60;;
65238;SDS011;51827;51.186;6.926;2023-08-12T05:44:00;5.10;;;2.80;;
65238;SDS011;51827;51.186;6.926;2023-08-12T05:45:00;6.23;;;2.97;;
65238;SDS011;51827;51.186;6.926;2023-08-12T05:46:00;4.25;;;2.70;;
65238;SDS011;51827;51.186;6.926;2023-08-12T05:47:01;4.13;;;2.50;;
65238;SDS011;51827;51.186;6.926;2023-08-12T05:48:01;5.80;;;2.60;;
65238;SDS011;51827;51.186;6.926;2023-08-12T05:49:01;5.63;;;2.77;;
65238;SDS011;51827;51.186;6.926;2023-08-12T05:50:02;4.87;;;2.67;;
65238;SDS011;51827;51.186;6.926;2023-08-12T05:51:02;5.50;;;2.92;;
65238;SDS011;51827;51.186;6.926;2023-08-12T05:52:02;6.13;;;2.70;;
65238;SDS011;51827;51.186;6.926;2023-08-12T05:53:03;6.13;;;2.83;;
65238;SDS011;51827;51.186;6.926;2023-08-12T05:54:03;8.23;;;2.80;;
65238;SDS011;51827;51.186;6.926;2023-08-12T05:55:04;5.47;;;2.90;;
65238;SDS011;51827;51.186;6.926;2023-08-12T05:56:05;7.35;;;2.92;;
65238;SDS011;51827;51.186;6.926;2023-08-12T05:57:05;5.70;;;2.90;;
65238;SDS011;51827;51.186;6.926;2023-08-12T05:58:06;7.77;;;3.10;;
65238;SDS011;51827;51.186;6.926;2023-08-12T05:59:07;4.90;;;2.85;;
65238;SDS011;51827;51.186;6.926;2023-08-12T06:00:07;5.30;;;2.87;;
65238;SDS011;51827;51.186;6.926;2023-08-12T06:01:08;6.55;;;2.63;;
65238;SDS011;51827;51.186;6.926;2023-08-12T06:02:08;4.47;;;2.60;;
65238;SDS011;51827;51.186;6.926;2023-08-12T06:03:08;6.20;;;2.77;;
65238;SDS011;51827;51.186;6.926;2023-08-12T06:04:09;5.00;;;2.97;;
65238;SDS011;51827;51.186;6.926;2023-08-12T06:05:09;8.40;;;3.00;;
65238;SDS011;51827;51.186;6.926;2023-08-12T06:06:09;6.57;;;2.90;;
65238;SDS011;51827;51.186;6.926;2023-08-12T06:07:09;8.50;;;3.20;;
65238;SDS011;51827;51.186;6.926;2023-08-12T06:08:10;7.37;;;2.87;;
65238;SDS011;51827;51.186;6.926;2023-08-12T06:09:10;7.87;;;3.17;;
65238;SDS011;51827;51.186;6.926;2023-08-12T06:10:10;6.73;;;2.53;;
65238;SDS011;51827;51.186;6.926;2023-08-12T06:11:10;8.40;;;3.00;;